createdAt,value
2023-01-11T00:02:43.488Z,1005.91
2023-01-11T00:05:43.499Z,1005.86
2023-01-11T00:08:43.489Z,1005.81
2023-01-11T00:11:43.489Z,1005.75
2023-01-11T00:14:43.533Z,1005.76
2023-01-11T00:17:43.489Z,1005.72
2023-01-11T00:20:43.502Z,1005.7
2023-01-11T00:23:43.482Z,1005.67
2023-01-11T00:26:43.489Z,1005.65
2023-01-11T00:29:43.495Z,1005.65
2023-01-11T00:32:43.492Z,1005.6
2023-01-11T00:35:43.489Z,1005.55
2023-01-11T00:38:43.483Z,1005.47
2023-01-11T00:41:43.484Z,1005.46
2023-01-11T00:44:43.491Z,1005.44
2023-01-11T00:47:43.496Z,1005.33
2023-01-11T00:50:43.526Z,1005.26
2023-01-11T00:53:43.494Z,1005.29
2023-01-11T00:56:43.492Z,1005.29
2023-01-11T00:59:43.494Z,1005.23
2023-01-11T01:02:43.537Z,1005.1
2023-01-11T01:05:43.510Z,1005.14
2023-01-11T01:08:43.501Z,1005.18
2023-01-11T01:11:43.499Z,1005.23
2023-01-11T01:14:43.504Z,1005.17
2023-01-11T01:17:43.514Z,1005.17
2023-01-11T01:20:43.500Z,1005.16
2023-01-11T01:23:43.498Z,1005.22
2023-01-11T01:26:43.522Z,1005.22
2023-01-11T01:29:43.505Z,1005.21
2023-01-11T01:32:43.505Z,1005.16
2023-01-11T01:35:43.499Z,1005.16
2023-01-11T01:38:43.506Z,1005.2
2023-01-11T01:41:43.510Z,1005.15
2023-01-11T01:44:43.514Z,1005.16
2023-01-11T01:47:43.507Z,1005.15
2023-01-11T01:50:43.519Z,1005.15
2023-01-11T01:53:43.499Z,1005.17
2023-01-11T01:56:43.498Z,1005.16
2023-01-11T01:59:43.506Z,1005.13
2023-01-11T02:02:43.596Z,1005.09
2023-01-11T02:05:43.494Z,1005.07
2023-01-11T02:08:43.504Z,1005.04
2023-01-11T02:11:43.529Z,1005.01
2023-01-11T02:14:43.504Z,1004.98
2023-01-11T02:17:43.504Z,1004.92
2023-01-11T02:20:43.509Z,1004.93
2023-01-11T02:23:43.499Z,1004.84
2023-01-11T02:26:43.505Z,1004.77
2023-01-11T02:29:43.512Z,1004.71
2023-01-11T02:32:43.504Z,1004.61
2023-01-11T02:35:43.513Z,1004.56
2023-01-11T02:38:43.517Z,1004.55
2023-01-11T02:41:43.502Z,1004.55
2023-01-11T02:44:43.535Z,1004.58
2023-01-11T02:47:43.507Z,1004.56
2023-01-11T02:50:43.500Z,1004.54
2023-01-11T02:53:43.500Z,1004.54
2023-01-11T02:56:43.527Z,1004.52
2023-01-11T02:59:43.510Z,1004.54
2023-01-11T03:02:43.520Z,1004.39
2023-01-11T03:05:43.509Z,1004.27
2023-01-11T03:08:43.503Z,1004.2
2023-01-11T03:11:43.509Z,1004.13
2023-01-11T03:14:43.511Z,1004.11
2023-01-11T03:17:43.515Z,1004.11
2023-01-11T03:20:43.507Z,1004.05
2023-01-11T03:23:43.506Z,1004.01
2023-01-11T03:26:43.511Z,1003.93
2023-01-11T03:29:43.512Z,1003.85
2023-01-11T03:32:43.505Z,1003.92
2023-01-11T03:35:43.508Z,1003.81
2023-01-11T03:38:43.516Z,1003.74
2023-01-11T03:41:43.507Z,1003.61
2023-01-11T03:44:43.555Z,1003.58
2023-01-11T03:47:43.508Z,1003.64
2023-01-11T03:50:43.507Z,1003.73
2023-01-11T03:53:43.505Z,1003.72
2023-01-11T03:56:43.509Z,1003.64
2023-01-11T03:59:43.507Z,1003.64
2023-01-11T04:02:43.503Z,1003.62
2023-01-11T04:05:43.510Z,1003.56
2023-01-11T04:08:43.512Z,1003.48
2023-01-11T04:11:43.509Z,1003.53
2023-01-11T04:14:43.513Z,1003.48
2023-01-11T04:17:43.510Z,1003.52
2023-01-11T04:20:43.517Z,1003.5
2023-01-11T04:23:43.522Z,1003.44
2023-01-11T04:26:43.512Z,1003.41
2023-01-11T04:29:43.505Z,1003.3
2023-01-11T04:32:43.506Z,1003.29
2023-01-11T04:35:43.506Z,1003.2
2023-01-11T04:38:43.504Z,1003.15
2023-01-11T04:41:43.516Z,1003.11
2023-01-11T04:44:43.506Z,1003.09
2023-01-11T04:47:43.524Z,1003.09
2023-01-11T04:50:43.560Z,1003.07
2023-01-11T04:53:43.516Z,1003.09
2023-01-11T04:56:43.503Z,1003.12
2023-01-11T04:59:43.510Z,1003.12
2023-01-11T05:02:43.516Z,1003.1
2023-01-11T05:05:43.513Z,1003.1
2023-01-11T05:08:43.513Z,1003.02
2023-01-11T05:11:43.510Z,1002.96
2023-01-11T05:14:43.513Z,1002.9
2023-01-11T05:17:43.513Z,1002.86
2023-01-11T05:20:43.513Z,1002.91
2023-01-11T05:23:43.541Z,1002.92
2023-01-11T05:26:43.527Z,1002.91
2023-01-11T05:29:43.514Z,1002.9
2023-01-11T05:32:43.513Z,1002.88
2023-01-11T05:35:43.515Z,1002.86
2023-01-11T05:38:43.515Z,1002.83
2023-01-11T05:41:43.543Z,1002.8
2023-01-11T05:44:43.517Z,1002.77
2023-01-11T05:47:43.535Z,1002.83
2023-01-11T05:50:43.517Z,1002.84
2023-01-11T05:53:43.515Z,1002.77
2023-01-11T05:56:43.533Z,1002.73
2023-01-11T05:59:43.522Z,1002.69
2023-01-11T06:02:43.623Z,1002.67
2023-01-11T06:05:45.274Z,1002.66
2023-01-11T06:08:43.525Z,1002.65
2023-01-11T06:11:43.521Z,1002.66
2023-01-11T06:14:43.520Z,1002.64
2023-01-11T06:17:43.529Z,1002.67
2023-01-11T06:20:43.519Z,1002.63
2023-01-11T06:23:43.528Z,1002.57
2023-01-11T06:26:43.523Z,1002.57
2023-01-11T06:29:43.528Z,1002.45
2023-01-11T06:32:43.521Z,1002.45
2023-01-11T06:35:43.525Z,1002.38
2023-01-11T06:38:43.533Z,1002.32
2023-01-11T06:41:43.529Z,1002.26
2023-01-11T06:44:43.516Z,1002.25
2023-01-11T06:47:43.520Z,1002.18
2023-01-11T06:50:43.516Z,1002.21
2023-01-11T06:53:43.528Z,1002.16
2023-01-11T06:56:43.521Z,1002.14
2023-01-11T06:59:43.529Z,1002.17
2023-01-11T07:02:43.526Z,1002.09
2023-01-11T07:05:43.528Z,1002.12
2023-01-11T07:08:43.517Z,1002.08
2023-01-11T07:11:43.610Z,1002.14
2023-01-11T07:14:43.515Z,1002.04
2023-01-11T07:17:43.525Z,1002.02
2023-01-11T07:20:43.525Z,1002.04
2023-01-11T07:23:43.528Z,1002.03
2023-01-11T07:26:43.531Z,1002.06
2023-01-11T07:29:43.518Z,1002.08
2023-01-11T07:32:43.523Z,1002.12
2023-01-11T07:35:43.529Z,1002.1
2023-01-11T07:38:43.527Z,1002.18
2023-01-11T07:41:43.527Z,1002.16
2023-01-11T07:44:43.545Z,1002.19
2023-01-11T07:47:43.526Z,1002.19
2023-01-11T07:50:44.952Z,1002.19
2023-01-11T07:53:43.529Z,1002.12
2023-01-11T07:56:43.536Z,1002.18
2023-01-11T07:59:43.529Z,1002.2
2023-01-11T08:02:43.652Z,1002.19
2023-01-11T08:05:43.544Z,1002.13
2023-01-11T08:08:43.553Z,1002.15
2023-01-11T08:11:43.526Z,1002.1
2023-01-11T08:14:43.538Z,1002.15
2023-01-11T08:17:43.539Z,1002.12
2023-01-11T08:20:43.537Z,1002.12
2023-01-11T08:23:43.539Z,1002.11
2023-01-11T08:26:43.574Z,1002.11
2023-01-11T08:29:43.533Z,1002.03
2023-01-11T08:32:43.541Z,1001.97
2023-01-11T08:35:43.532Z,1001.88
2023-01-11T08:38:43.543Z,1001.89
2023-01-11T08:41:43.541Z,1001.87
2023-01-11T08:44:43.542Z,1001.91
2023-01-11T08:47:43.550Z,1001.97
2023-01-11T08:50:43.542Z,1001.96
2023-01-11T08:53:43.541Z,1001.99
2023-01-11T08:56:43.554Z,1002.04
2023-01-11T08:59:43.539Z,1002.09
2023-01-11T09:02:43.602Z,1002.06
2023-01-11T09:05:43.539Z,1002.03
2023-01-11T09:08:43.547Z,1002.08
2023-01-11T09:11:43.580Z,1002.1
2023-01-11T09:14:43.589Z,1002.07
2023-01-11T09:17:43.542Z,1002.05
2023-01-11T09:20:43.559Z,1002.04
2023-01-11T09:23:43.549Z,1001.94
2023-01-11T09:26:43.752Z,1001.98
2023-01-11T09:29:43.547Z,1001.98
2023-01-11T09:32:43.547Z,1002
2023-01-11T09:35:43.556Z,1002.01
2023-01-11T09:38:43.548Z,1002.07
2023-01-11T09:41:43.597Z,1002.07
2023-01-11T09:44:43.576Z,1002.1
2023-01-11T09:47:43.577Z,1002.13
2023-01-11T09:50:43.586Z,1002.12
2023-01-11T09:53:43.570Z,1002.15
2023-01-11T09:56:43.597Z,1002.1
2023-01-11T09:59:43.578Z,1002.15
2023-01-11T10:02:43.578Z,1002.13
2023-01-11T10:05:43.582Z,1002.12
2023-01-11T10:18:25.320Z,1002.09
2023-01-11T10:18:34.830Z,1002.06
2023-01-11T10:20:43.607Z,1001.99
2023-01-11T10:23:43.590Z,1002.05
2023-01-11T10:26:43.609Z,1002.01
2023-01-11T10:29:43.598Z,1002.05
2023-01-11T10:32:43.594Z,1002.07
2023-01-11T10:35:43.600Z,1002.08
2023-01-11T10:38:43.700Z,1002.1
2023-01-11T10:41:43.609Z,1002.13
2023-01-11T10:44:43.611Z,1002.12
2023-01-11T10:47:43.609Z,1002.16
2023-01-11T10:50:43.612Z,1002.2
2023-01-11T10:53:43.612Z,1002.25
2023-01-11T10:57:01.608Z,1002.29
2023-01-11T10:59:43.646Z,1002.35
2023-01-11T11:02:43.634Z,1002.44
2023-01-11T11:05:43.607Z,1002.44
2023-01-11T11:08:43.596Z,1002.32
2023-01-11T11:11:43.606Z,1002.41
2023-01-11T11:14:43.628Z,1002.43
2023-01-11T11:17:43.603Z,1002.29
2023-01-11T11:20:43.606Z,1002.2
2023-01-11T11:23:43.607Z,1002.05
2023-01-11T11:26:43.649Z,1001.99
2023-01-11T11:29:43.648Z,1002.02
2023-01-11T11:32:43.613Z,1002.02
2023-01-11T11:35:43.611Z,1002.03
2023-01-11T11:38:43.616Z,1002.06
2023-01-11T11:41:43.614Z,1002.09
2023-01-11T11:44:43.609Z,1002.01
2023-01-11T11:47:43.616Z,1001.88
2023-01-11T11:50:45.532Z,1001.87
2023-01-11T11:53:43.619Z,1001.92
2023-01-11T11:56:43.614Z,1001.94
2023-01-11T11:59:43.631Z,1002.01
2023-01-11T12:02:43.613Z,1002.09
2023-01-11T12:05:43.636Z,1002.11
2023-01-11T12:08:43.637Z,1002.15
2023-01-11T12:11:43.648Z,1002.13
2023-01-11T12:14:43.638Z,1002.18
2023-01-11T12:17:43.641Z,1002.17
2023-01-11T12:20:43.642Z,1002.2
2023-01-11T12:23:43.635Z,1002.27
2023-01-11T12:26:43.698Z,1002.27
2023-01-11T12:29:43.654Z,1002.23
2023-01-11T12:32:43.631Z,1002.19
2023-01-11T12:35:43.638Z,1002.17
2023-01-11T12:38:43.648Z,1002.14
2023-01-11T12:41:43.727Z,1002.13
2023-01-11T12:44:43.655Z,1002.17
2023-01-11T12:47:43.638Z,1002.13
2023-01-11T12:50:43.676Z,1002.16
2023-01-11T12:53:43.647Z,1002.15
2023-01-11T12:56:43.652Z,1002.17
2023-01-11T12:59:43.645Z,1002.19
2023-01-11T13:02:43.654Z,1002.32
2023-01-11T13:05:43.645Z,1002.35
2023-01-11T13:08:43.644Z,1002.43
2023-01-11T13:11:43.643Z,1002.51
2023-01-11T13:14:43.645Z,1002.54
2023-01-11T13:17:43.644Z,1002.51
2023-01-11T13:20:59.112Z,1002.46
2023-01-11T13:23:43.646Z,1002.46
2023-01-11T13:26:43.650Z,1002.43
2023-01-11T13:29:43.640Z,1002.41
2023-01-11T13:32:43.648Z,1002.36
2023-01-11T13:35:43.638Z,1002.42
2023-01-11T13:38:43.643Z,1002.44
2023-01-11T13:41:43.642Z,1002.41
2023-01-11T13:44:43.652Z,1002.38
2023-01-11T13:47:43.642Z,1002.42
2023-01-11T13:50:43.644Z,1002.42
2023-01-11T13:53:43.648Z,1002.5
2023-01-11T13:56:43.647Z,1002.64
2023-01-11T13:59:43.646Z,1002.7
2023-01-11T14:02:43.644Z,1002.73
2023-01-11T14:05:43.643Z,1002.76
2023-01-11T14:08:43.656Z,1002.79
2023-01-11T14:11:43.648Z,1002.89
2023-01-11T14:14:43.656Z,1002.96
2023-01-11T14:17:43.654Z,1002.94
2023-01-11T14:20:43.658Z,1002.93
2023-01-11T14:23:43.666Z,1002.94
2023-01-11T14:26:43.684Z,1003.01
2023-01-11T14:29:43.651Z,1003.1
2023-01-11T14:32:43.652Z,1003.11
2023-01-11T14:35:43.672Z,1003.12
2023-01-11T14:38:43.645Z,1003.22
2023-01-11T14:41:43.649Z,1003.32
2023-01-11T14:44:43.662Z,1003.39
2023-01-11T14:47:43.653Z,1003.44
2023-01-11T14:50:43.665Z,1003.46
2023-01-11T14:53:43.651Z,1003.53
2023-01-11T14:56:43.668Z,1003.59
2023-01-11T14:59:43.649Z,1003.63
2023-01-11T15:02:43.654Z,1003.71
2023-01-11T15:05:43.645Z,1003.8
2023-01-11T15:08:43.652Z,1003.9
2023-01-11T15:11:43.649Z,1003.97
2023-01-11T15:14:43.649Z,1004.04
2023-01-11T15:17:43.659Z,1004.09
2023-01-11T15:20:43.654Z,1004.11
2023-01-11T15:23:43.654Z,1004.18
2023-01-11T15:26:43.663Z,1004.2
2023-01-11T15:29:43.667Z,1004.26
2023-01-11T15:32:43.653Z,1004.33
2023-01-11T15:35:43.653Z,1004.36
2023-01-11T15:38:43.649Z,1004.44
2023-01-11T15:41:43.658Z,1004.51
2023-01-11T15:44:43.659Z,1004.51
2023-01-11T15:47:43.682Z,1004.57
2023-01-11T15:50:43.655Z,1004.66
2023-01-11T15:53:43.653Z,1004.7
2023-01-11T15:56:43.658Z,1004.76
2023-01-11T15:59:43.651Z,1004.77
2023-01-11T16:02:43.659Z,1004.71
2023-01-11T16:05:43.657Z,1004.76
2023-01-11T16:08:43.658Z,1004.73
2023-01-11T16:11:43.664Z,1004.75
2023-01-11T16:14:43.662Z,1004.8
2023-01-11T16:17:43.681Z,1004.87
2023-01-11T16:20:43.671Z,1004.92
2023-01-11T16:23:43.665Z,1004.9
2023-01-11T16:26:43.723Z,1004.88
2023-01-11T16:29:43.656Z,1004.81
2023-01-11T16:32:43.695Z,1004.86
2023-01-11T16:35:43.731Z,1004.86
2023-01-11T16:38:43.675Z,1004.95
2023-01-11T16:41:43.662Z,1005.06
2023-01-11T16:44:43.668Z,1005.11
2023-01-11T16:47:43.670Z,1005.13
2023-01-11T16:50:43.661Z,1005.19
2023-01-11T16:53:43.760Z,1005.18
2023-01-11T16:56:43.668Z,1005.24
2023-01-11T16:59:43.666Z,1005.26
2023-01-11T17:02:43.657Z,1005.3
2023-01-11T17:05:43.671Z,1005.3
2023-01-11T17:08:43.675Z,1005.3
2023-01-11T17:11:43.667Z,1005.41
2023-01-11T17:14:43.671Z,1005.49
2023-01-11T17:17:43.693Z,1005.47
2023-01-11T17:20:43.673Z,1005.54
2023-01-11T17:23:43.662Z,1005.58
2023-01-11T17:26:43.723Z,1005.66
2023-01-11T17:29:43.670Z,1005.73
2023-01-11T17:32:43.667Z,1005.76
2023-01-11T17:35:43.683Z,1005.8
2023-01-11T17:38:43.698Z,1005.89
2023-01-11T17:41:43.744Z,1005.83
2023-01-11T17:44:43.685Z,1005.89
2023-01-11T17:47:43.712Z,1005.98
2023-01-11T17:50:43.680Z,1006.02
2023-01-11T17:53:43.684Z,1006.05
2023-01-11T17:56:43.681Z,1006.06
2023-01-11T17:59:43.688Z,1006.11
2023-01-11T18:02:43.751Z,1006.14
2023-01-11T18:05:43.679Z,1006.27
2023-01-11T18:08:43.708Z,1006.26
2023-01-11T18:11:43.691Z,1006.32
2023-01-11T18:14:43.690Z,1006.31
2023-01-11T18:17:43.683Z,1006.39
2023-01-11T18:20:43.682Z,1006.44
2023-01-11T18:23:43.690Z,1006.55
2023-01-11T18:26:43.772Z,1006.53
2023-01-11T18:29:43.689Z,1006.59
2023-01-11T18:32:43.683Z,1006.64
2023-01-11T18:35:43.685Z,1006.67
2023-01-11T18:38:43.683Z,1006.67
2023-01-11T18:41:44.771Z,1006.69
2023-01-11T18:44:43.689Z,1006.73
2023-01-11T18:47:43.743Z,1006.8
2023-01-11T18:50:43.693Z,1006.82
2023-01-11T18:53:43.681Z,1006.81
2023-01-11T18:56:43.704Z,1006.77
2023-01-11T18:59:43.692Z,1006.83
2023-01-11T19:02:43.835Z,1006.85
2023-01-11T19:05:43.679Z,1006.78
2023-01-11T19:08:43.716Z,1006.73
2023-01-11T19:11:43.678Z,1006.8
2023-01-11T19:14:43.695Z,1006.85
2023-01-11T19:17:43.727Z,1006.95
2023-01-11T19:20:43.707Z,1007.03
2023-01-11T19:23:43.706Z,1007.08
2023-01-11T19:26:43.768Z,1007.2
2023-01-11T19:29:43.719Z,1007.3
2023-01-11T19:32:43.696Z,1007.36
2023-01-11T19:35:43.689Z,1007.37
2023-01-11T19:38:43.695Z,1007.32
2023-01-11T19:41:43.697Z,1007.23
2023-01-11T19:44:43.692Z,1007.2
2023-01-11T19:47:43.698Z,1007.22
2023-01-11T19:50:43.704Z,1007.24
2023-01-11T19:53:43.702Z,1007.25
2023-01-11T19:56:43.698Z,1007.26
2023-01-11T19:59:43.699Z,1007.23
2023-01-11T20:02:43.726Z,1007.22
2023-01-11T20:05:43.694Z,1007.22
2023-01-11T20:08:43.702Z,1007.22
2023-01-11T20:11:43.691Z,1007.16
2023-01-11T20:14:43.721Z,1007.09
2023-01-11T20:17:43.704Z,1007.03
2023-01-11T20:20:43.698Z,1006.98
2023-01-11T20:23:43.690Z,1006.92
2023-01-11T20:26:43.724Z,1006.95
2023-01-11T20:29:43.712Z,1007.07
2023-01-11T20:32:43.688Z,1007.03
2023-01-11T20:35:43.708Z,1007.06
2023-01-11T20:38:43.710Z,1007.11
2023-01-11T20:41:43.706Z,1007.11
2023-01-11T20:44:43.695Z,1007.15
2023-01-11T20:47:43.697Z,1007.04
2023-01-11T20:50:43.697Z,1006.95
2023-01-11T20:53:43.690Z,1006.93
2023-01-11T20:56:43.707Z,1006.85
2023-01-11T20:59:43.698Z,1006.83
2023-01-11T21:02:43.741Z,1006.79
2023-01-11T21:05:43.709Z,1006.78
2023-01-11T21:08:43.698Z,1006.73
2023-01-11T21:11:43.695Z,1006.67
2023-01-11T21:14:43.803Z,1006.63
2023-01-11T21:17:43.700Z,1006.62
2023-01-11T21:20:43.699Z,1006.61
2023-01-11T21:23:43.697Z,1006.58
2023-01-11T21:26:43.782Z,1006.63
2023-01-11T21:29:43.699Z,1006.69
2023-01-11T21:32:43.713Z,1006.66
2023-01-11T21:35:43.711Z,1006.63
2023-01-11T21:38:43.704Z,1006.62
2023-01-11T21:41:43.733Z,1006.59
2023-01-11T21:44:43.707Z,1006.57
2023-01-11T21:47:43.699Z,1006.55
2023-01-11T21:50:43.716Z,1006.53
2023-01-11T21:53:43.714Z,1006.54
2023-01-11T21:56:43.711Z,1006.59
2023-01-11T21:59:43.703Z,1006.54
2023-01-11T22:02:43.711Z,1006.56
2023-01-11T22:05:43.710Z,1006.55
2023-01-11T22:08:43.714Z,1006.57
2023-01-11T22:11:43.718Z,1006.59
2023-01-11T22:14:43.723Z,1006.58
2023-01-11T22:17:43.709Z,1006.62
2023-01-11T22:20:43.710Z,1006.69
2023-01-11T22:23:43.709Z,1006.76
2023-01-11T22:26:43.763Z,1006.77
2023-01-11T22:29:43.708Z,1006.8
2023-01-11T22:32:43.710Z,1006.74
2023-01-11T22:35:43.733Z,1006.66
2023-01-11T22:38:43.717Z,1006.62
2023-01-11T22:41:43.725Z,1006.61
2023-01-11T22:44:43.714Z,1006.58
2023-01-11T22:47:43.711Z,1006.55
2023-01-11T22:50:43.715Z,1006.61
2023-01-11T22:53:43.711Z,1006.6
2023-01-11T22:56:43.712Z,1006.62
2023-01-11T22:59:43.713Z,1006.6
2023-01-11T23:02:43.770Z,1006.61
2023-01-11T23:05:43.704Z,1006.59
2023-01-11T23:08:43.724Z,1006.53
2023-01-11T23:11:43.716Z,1006.5
2023-01-11T23:14:43.719Z,1006.55
2023-01-11T23:17:43.712Z,1006.47
2023-01-11T23:20:43.720Z,1006.5
2023-01-11T23:23:43.730Z,1006.49
2023-01-11T23:26:43.785Z,1006.44
2023-01-11T23:29:43.715Z,1006.33
2023-01-11T23:32:43.710Z,1006.33
2023-01-11T23:35:43.715Z,1006.31
2023-01-11T23:38:43.721Z,1006.35
2023-01-11T23:41:43.700Z,1006.33
2023-01-11T23:44:43.716Z,1006.31
2023-01-11T23:47:43.714Z,1006.29
2023-01-11T23:50:43.715Z,1006.31
2023-01-11T23:53:43.758Z,1006.29
2023-01-11T23:56:43.725Z,1006.26
2023-01-11T23:59:43.721Z,1006.24
